Time;durP1;ratioP1;P1;durP2;ratioP2;P2;SDS_P1;SDS_P2;PMS_P1;PMS_P2;Temp;Humidity;BMP_temperature;BMP_pressure;BME280_temperature;BME280_humidity;BME280_pressure;Samples;Min_cycle;Max_cycle;Signal;HPM_P1;HPM_P2
2021/12/27 00:01:13;;;;;;;;;;;;;;;21.97;26.35;97668.78;4918189;29;967;-75
2021/12/27 00:03:49;;;;;;;;;;;;;;;21.92;26.28;97666.53;4917778;29;1005;-75
2021/12/27 00:06:15;;;;;;;;;;;;;;;21.43;26.83;97664.03;4918119;29;956;-75
2021/12/27 00:08:41;;;;;;;;;;;;;;;22.07;26.08;97661.94;4968490;28;977;-75
2021/12/27 00:11:08;;;;;;;;;;;;;;;22.25;25.87;97662.16;4975591;28;943;-75
2021/12/27 00:13:33;;;;;;;;;;;;;;;21.55;26.96;97677.41;4985584;28;999;-75
2021/12/27 00:15:59;;;;;;;;;;;;;;;22.02;26.17;97671.03;5016194;28;970;-75
2021/12/27 00:18:24;;;;;;;;;;;;;;;22.16;26.00;97670.56;5016741;28;1906;-75
2021/12/27 00:20:50;;;;;;;;;;;;;;;22.05;26.15;97670.91;5016652;28;901;-74
2021/12/27 00:23:15;;;;;;;;;;;;;;;21.72;26.64;97670.41;4981640;28;1172;-75
2021/12/27 00:25:40;;;;;;;;;;;;;;;21.66;26.86;97674.22;4955684;29;979;-75
2021/12/27 00:28:06;;;;;;;;;;;;;;;21.77;26.72;97667.00;4955986;29;1088;-75
2021/12/27 00:30:31;;;;;;;;;;;;;;;21.70;26.73;97661.53;4955652;29;1023;-75
2021/12/27 00:32:57;;;;;;;;;;;;;;;21.56;26.84;97668.47;4955925;29;958;-75
2021/12/27 00:35:26;;;;;;;;;;;;;;;21.79;26.54;97670.16;4955712;29;962;-75
2021/12/27 00:37:51;;;;;;;;;;;;;;;21.89;26.54;97684.44;4956041;29;1025;-75
2021/12/27 00:40:16;;;;;;;;;;;;;;;21.81;26.37;97687.50;4955755;29;1980;-75
2021/12/27 00:42:42;;;;;;;;;;;;;;;21.81;26.49;97681.84;4955844;29;980;-75
2021/12/27 00:45:08;;;;;;;;;;;;;;;21.27;27.40;97691.16;4955821;29;1150;-74
2021/12/27 00:47:33;;;;;;;;;;;;;;;21.73;26.79;97686.13;4923866;29;996;-75
2021/12/27 00:49:59;;;;;;;;;;;;;;;22.08;26.08;97691.88;4955414;29;951;-75
2021/12/27 00:52:24;;;;;;;;;;;;;;;21.12;27.74;97698.50;4955375;29;1053;-74
2021/12/27 00:54:49;;;;;;;;;;;;;;;21.92;26.41;97694.84;4958962;28;1101;-75
2021/12/27 00:57:15;;;;;;;;;;;;;;;22.08;26.00;97689.06;4987711;28;1349;-75
2021/12/27 00:59:40;;;;;;;;;;;;;;;22.13;26.13;97688.50;5020266;28;1965;-75
2021/12/27 01:02:06;;;;;;;;;;;;;;;21.35;27.22;97693.78;5020195;28;933;-75
2021/12/27 01:04:31;;;;;;;;;;;;;;;21.58;27.09;97687.84;5020019;28;973;-75
2021/12/27 01:06:57;;;;;;;;;;;;;;;21.91;26.45;97677.03;5020444;28;865;-75
2021/12/27 01:09:58;;;;;;;;;;;;;;;21.37;27.25;97671.53;5020086;28;916;-75
2021/12/27 01:12:28;;;;;;;;;;;;;;;21.19;27.40;97672.84;5017874;28;973;-75
2021/12/27 01:17:38;;;;;;;;;;;;;;;21.65;26.76;97661.31;5020084;28;930;-75
2021/12/27 01:20:06;;;;;;;;;;;;;;;21.78;26.77;97673.44;5019850;28;1910;-75
2021/12/27 01:22:32;;;;;;;;;;;;;;;21.74;26.31;97665.06;5019716;28;988;-75
2021/12/27 01:24:58;;;;;;;;;;;;;;;21.47;26.93;97673.22;5019492;28;1091;-75
2021/12/27 01:27:24;;;;;;;;;;;;;;;22.09;25.95;97659.47;5020023;28;1091;-75
2021/12/27 01:29:49;;;;;;;;;;;;;;;22.01;26.38;97658.09;5019908;28;914;-75
2021/12/27 01:32:15;;;;;;;;;;;;;;;21.77;26.35;97644.34;5019531;28;920;-75
2021/12/27 01:34:43;;;;;;;;;;;;;;;21.42;26.90;97639.81;5019266;28;881;-75
2021/12/27 01:37:08;;;;;;;;;;;;;;;21.99;26.35;97649.28;5019878;28;986;-75
2021/12/27 01:39:34;;;;;;;;;;;;;;;22.71;25.13;97647.59;5019895;28;1987;-75
2021/12/27 01:41:59;;;;;;;;;;;;;;;21.87;26.39;97635.94;5019765;28;976;-75
2021/12/27 01:44:25;;;;;;;;;;;;;;;21.97;26.28;97635.59;5019608;28;952;-75
2021/12/27 01:46:52;;;;;;;;;;;;;;;21.64;26.96;97629.38;5019346;28;1015;-75
2021/12/27 01:49:18;;;;;;;;;;;;;;;21.74;26.97;97633.91;5019366;28;963;-75
2021/12/27 01:51:43;;;;;;;;;;;;;;;22.16;26.12;97625.25;5019270;28;933;-75
2021/12/27 01:54:09;;;;;;;;;;;;;;;22.20;26.03;97622.28;5019709;28;933;-75
2021/12/27 01:56:34;;;;;;;;;;;;;;;22.14;26.22;97627.75;5019100;28;948;-75
2021/12/27 01:58:59;;;;;;;;;;;;;;;21.53;26.95;97628.94;5019010;28;1906;-75
2021/12/27 02:01:25;;;;;;;;;;;;;;;21.17;27.87;97630.03;5019072;28;1007;-75
2021/12/27 02:03:53;;;;;;;;;;;;;;;22.13;26.23;97625.38;5019001;28;985;-75
2021/12/27 02:06:19;;;;;;;;;;;;;;;22.00;26.20;97622.53;5018017;28;978;-75
2021/12/27 02:08:44;;;;;;;;;;;;;;;22.08;26.09;97612.56;5019145;28;995;-75
2021/12/27 02:11:10;;;;;;;;;;;;;;;21.83;26.75;97607.75;5019098;28;892;-74
2021/12/27 02:13:43;;;;;;;;;;;;;;;21.87;26.53;97596.28;5018911;28;967;-75
2021/12/27 02:16:09;;;;;;;;;;;;;;;21.92;26.48;97604.22;5018953;28;921;-75
2021/12/27 02:18:37;;;;;;;;;;;;;;;22.06;26.43;97598.03;4960844;28;1914;-75
2021/12/27 02:21:03;;;;;;;;;;;;;;;21.81;26.61;97593.22;4977748;28;937;-75
2021/12/27 02:23:28;;;;;;;;;;;;;;;21.51;27.33;97598.28;4977385;28;1590;-75
2021/12/27 02:25:54;;;;;;;;;;;;;;;21.87;26.83;97590.63;4977732;28;1051;-75
2021/12/27 02:28:19;;;;;;;;;;;;;;;22.03;26.18;97596.13;4961140;28;1388;-75
2021/12/27 02:30:45;;;;;;;;;;;;;;;22.16;25.93;97601.78;4977310;28;928;-75
2021/12/27 02:33:11;;;;;;;;;;;;;;;21.96;26.57;97594.31;4977315;28;922;-75
2021/12/27 02:35:43;;;;;;;;;;;;;;;22.34;25.78;97597.06;4977085;28;1239;-75
2021/12/27 02:38:10;;;;;;;;;;;;;;;22.25;26.02;97588.50;4961094;28;1890;-75
2021/12/27 02:40:35;;;;;;;;;;;;;;;22.10;26.25;97598.72;4961208;28;1010;-75
2021/12/27 02:43:05;;;;;;;;;;;;;;;21.94;26.31;97598.88;4961123;28;975;-75
2021/12/27 02:45:31;;;;;;;;;;;;;;;22.09;26.32;97597.13;4922215;29;891;-74
2021/12/27 02:47:57;;;;;;;;;;;;;;;22.00;26.58;97609.16;4881482;29;1056;-75
2021/12/27 02:50:23;;;;;;;;;;;;;;;21.33;27.33;97607.31;4897457;29;986;-75
2021/12/27 02:52:48;;;;;;;;;;;;;;;21.84;26.64;97604.44;4900545;29;1071;-75
2021/12/27 02:55:15;;;;;;;;;;;;;;;21.99;26.25;97610.41;4900418;29;1189;-75
2021/12/27 02:57:43;;;;;;;;;;;;;;;21.81;26.81;97598.88;4900285;29;1145;-75
2021/12/27 03:00:16;;;;;;;;;;;;;;;21.49;27.39;97614.09;4900078;29;1906;-75
2021/12/27 03:02:42;;;;;;;;;;;;;;;21.69;27.07;97625.97;4900317;29;933;-75
2021/12/27 03:05:08;;;;;;;;;;;;;;;22.10;26.27;97621.38;4900440;29;1007;-75
2021/12/27 03:07:34;;;;;;;;;;;;;;;21.88;26.67;97609.22;4900484;29;1025;-75
2021/12/27 03:09:59;;;;;;;;;;;;;;;22.29;26.21;97614.66;4899776;29;1013;-75
2021/12/27 03:12:25;;;;;;;;;;;;;;;23.11;25.03;97610.88;4900044;29;1072;-75
2021/12/27 03:14:50;;;;;;;;;;;;;;;22.31;25.77;97606.47;4899765;29;913;-75
2021/12/27 03:17:16;;;;;;;;;;;;;;;22.16;26.26;97611.06;4946477;28;1003;-75
2021/12/27 03:19:41;;;;;;;;;;;;;;;21.76;26.82;97608.78;4956801;29;1931;-75
2021/12/27 03:22:06;;;;;;;;;;;;;;;22.04;26.42;97600.53;4957047;29;1082;-75
2021/12/27 03:24:32;;;;;;;;;;;;;;;21.31;27.54;97607.00;4965986;28;1074;-75
2021/12/27 03:26:57;;;;;;;;;;;;;;;21.31;27.55;97607.00;5017859;28;847;-75
2021/12/27 03:29:23;;;;;;;;;;;;;;;21.90;26.83;97606.69;5017137;28;940;-75
2021/12/27 03:31:50;;;;;;;;;;;;;;;21.89;26.75;97600.25;5017099;28;921;-74
2021/12/27 03:34:15;;;;;;;;;;;;;;;22.16;26.23;97601.78;5017426;28;919;-75
2021/12/27 03:36:42;;;;;;;;;;;;;;;22.08;26.44;97606.88;5017434;28;1016;-75
2021/12/27 03:39:08;;;;;;;;;;;;;;;22.01;26.56;97601.44;4999980;28;1894;-75
2021/12/27 03:41:33;;;;;;;;;;;;;;;22.25;26.28;97601.88;4959846;28;1066;-75
2021/12/27 03:43:59;;;;;;;;;;;;;;;21.89;26.85;97594.56;4976087;28;1089;-75
2021/12/27 03:46:26;;;;;;;;;;;;;;;22.07;26.20;97599.63;4975597;28;975;-75
2021/12/27 03:48:52;;;;;;;;;;;;;;;21.77;26.86;97593.38;4975937;28;1022;-75
2021/12/27 03:51:19;;;;;;;;;;;;;;;21.84;26.80;97587.44;4959290;28;993;-74
2021/12/27 03:53:45;;;;;;;;;;;;;;;21.97;26.39;97600.81;4975933;28;984;-74
2021/12/27 03:56:10;;;;;;;;;;;;;;;21.61;27.08;97602.00;4975604;28;941;-75
2021/12/27 03:59:08;;;;;;;;;;;;;;;21.95;26.73;97597.63;4975747;28;1970;-75
2021/12/27 04:01:34;;;;;;;;;;;;;;;22.04;26.63;97601.34;4975606;28;1149;-75
2021/12/27 04:03:59;;;;;;;;;;;;;;;21.99;26.41;97586.97;4975180;28;1515;-75
2021/12/27 04:06:25;;;;;;;;;;;;;;;21.89;26.47;97593.78;4975127;28;1327;-75
2021/12/27 04:08:51;;;;;;;;;;;;;;;21.63;27.08;97596.66;4975220;28;1227;-75
2021/12/27 04:11:16;;;;;;;;;;;;;;;21.74;26.74;97594.25;4974762;28;1211;-75
2021/12/27 04:13:42;;;;;;;;;;;;;;;21.96;26.36;97593.53;5015376;28;1199;-75
2021/12/27 04:16:07;;;;;;;;;;;;;;;22.04;26.48;97594.88;5016364;28;1301;-75
2021/12/27 04:18:33;;;;;;;;;;;;;;;22.01;26.51;97590.13;4974375;28;1907;-74
2021/12/27 04:20:58;;;;;;;;;;;;;;;21.96;26.39;97593.53;4974429;28;1230;-75
2021/12/27 04:23:23;;;;;;;;;;;;;;;21.55;27.18;97592.47;4974933;28;1326;-75
2021/12/27 04:25:52;;;;;;;;;;;;;;;21.62;27.10;97588.63;4974727;28;1226;-75
2021/12/27 04:28:19;;;;;;;;;;;;;;;21.77;26.68;97587.69;4974365;28;1270;-75
2021/12/27 04:30:45;;;;;;;;;;;;;;;21.71;26.95;97589.53;4975370;28;1254;-75
2021/12/27 04:33:10;;;;;;;;;;;;;;;21.47;27.26;97593.97;4974813;28;988;-75
2021/12/27 04:35:36;;;;;;;;;;;;;;;22.40;25.97;97600.09;4975360;28;966;-75
2021/12/27 04:38:01;;;;;;;;;;;;;;;22.70;25.45;97584.41;4974932;28;1060;-75
2021/12/27 04:40:29;;;;;;;;;;;;;;;22.10;26.34;97576.03;4975322;28;1101;-75
2021/12/27 04:42:57;;;;;;;;;;;;;;;22.08;26.27;97578.56;4974967;28;941;-75
2021/12/27 04:45:22;;;;;;;;;;;;;;;22.16;26.43;97574.22;4975129;28;1029;-75
2021/12/27 04:47:47;;;;;;;;;;;;;;;22.27;25.96;97573.84;4974820;28;1010;-75
2021/12/27 04:50:13;;;;;;;;;;;;;;;21.71;26.99;97572.53;4991866;28;940;-75
2021/12/27 04:52:39;;;;;;;;;;;;;;;22.04;26.64;97581.50;4936285;29;992;-75
2021/12/27 04:55:04;;;;;;;;;;;;;;;22.18;26.43;97583.09;4898239;29;953;-75
2021/12/27 04:57:30;;;;;;;;;;;;;;;22.08;26.34;97572.88;4898842;29;962;-74
2021/12/27 04:59:55;;;;;;;;;;;;;;;21.82;26.62;97578.63;4898222;29;1915;-75
2021/12/27 05:02:21;;;;;;;;;;;;;;;22.29;26.00;97583.50;4898237;29;789;-75
2021/12/27 05:04:46;;;;;;;;;;;;;;;21.27;27.77;97586.47;4898247;29;863;-75
2021/12/27 05:07:11;;;;;;;;;;;;;;;21.77;26.78;97593.38;4898455;29;1262;-75
2021/12/27 05:09:37;;;;;;;;;;;;;;;22.14;26.57;97598.63;4898384;29;972;-75
2021/12/27 05:12:03;;;;;;;;;;;;;;;21.90;26.61;97596.16;4898415;29;918;-75
2021/12/27 05:14:28;;;;;;;;;;;;;;;21.97;26.71;97595.94;4898099;29;1111;-75
2021/12/27 05:16:54;;;;;;;;;;;;;;;21.93;26.79;97606.59;4898777;29;1029;-75
2021/12/27 05:19:19;;;;;;;;;;;;;;;21.91;26.74;97602.59;4898368;29;1899;-75
2021/12/27 05:21:45;;;;;;;;;;;;;;;21.89;26.85;97607.94;4898189;29;1006;-75
2021/12/27 05:24:12;;;;;;;;;;;;;;;21.92;26.74;97598.56;4925359;29;1184;-75
2021/12/27 05:26:38;;;;;;;;;;;;;;;21.66;27.26;97595.78;4980351;28;921;-75
2021/12/27 05:29:03;;;;;;;;;;;;;;;22.20;26.45;97597.56;4996691;28;985;-75
2021/12/27 05:31:29;;;;;;;;;;;;;;;22.08;26.49;97606.88;4935834;29;988;-75
2021/12/27 05:33:56;;;;;;;;;;;;;;;21.95;26.69;97597.63;4917143;29;1013;-76
2021/12/27 05:36:22;;;;;;;;;;;;;;;21.84;26.74;97593.09;4901098;29;1027;-75
2021/12/27 05:38:47;;;;;;;;;;;;;;;22.03;26.57;97596.13;4916965;29;1985;-75
2021/12/27 05:41:13;;;;;;;;;;;;;;;21.49;27.55;97591.47;4887755;29;976;-75
2021/12/27 05:43:38;;;;;;;;;;;;;;;21.86;27.00;97589.81;4904812;29;999;-75
2021/12/27 05:46:04;;;;;;;;;;;;;;;21.95;26.73;97594.78;4920234;29;1350;-75
2021/12/27 05:48:30;;;;;;;;;;;;;;;21.78;26.85;97583.63;4920707;29;1339;-76
2021/12/27 05:50:55;;;;;;;;;;;;;;;21.85;27.20;97586.19;4920614;29;993;-76
2021/12/27 05:53:21;;;;;;;;;;;;;;;22.73;25.56;97588.38;4920446;29;1012;-75
2021/12/27 05:55:46;;;;;;;;;;;;;;;22.11;26.46;97600.31;4920761;29;918;-75
2021/12/27 05:58:12;;;;;;;;;;;;;;;22.00;26.76;97606.31;4920132;29;1907;-75
2021/12/27 06:00:37;;;;;;;;;;;;;;;21.89;27.06;97605.13;4920041;29;991;-75
2021/12/27 06:03:03;;;;;;;;;;;;;;;22.20;26.57;97602.44;4962560;28;952;-75
2021/12/27 06:05:29;;;;;;;;;;;;;;;21.57;27.26;97601.31;4960354;28;1070;-75
2021/12/27 06:07:54;;;;;;;;;;;;;;;22.08;26.56;97606.88;4998992;28;916;-75
2021/12/27 06:10:23;;;;;;;;;;;;;;;21.98;26.58;97602.38;4999573;28;898;-76
2021/12/27 06:12:51;;;;;;;;;;;;;;;21.95;26.96;97600.44;4980575;28;1000;-75
2021/12/27 06:15:16;;;;;;;;;;;;;;;22.11;26.64;97600.31;4999440;28;939;-75
2021/12/27 06:17:42;;;;;;;;;;;;;;;21.24;27.99;97597.88;4999230;28;938;-75
2021/12/27 06:20:09;;;;;;;;;;;;;;;21.33;28.14;97595.22;4998927;28;1910;-75
2021/12/27 06:22:34;;;;;;;;;;;;;;;22.59;25.97;97589.72;4958113;29;1018;-75
2021/12/27 06:25:03;;;;;;;;;;;;;;;22.50;25.59;97592.47;4938413;29;1434;-75
2021/12/27 06:27:31;;;;;;;;;;;;;;;22.25;26.06;97590.53;4938759;29;1059;-75
2021/12/27 06:29:56;;;;;;;;;;;;;;;21.94;26.69;97584.72;4939017;29;1089;-75
2021/12/27 06:32:21;;;;;;;;;;;;;;;22.00;26.51;97594.22;4938776;29;895;-75
2021/12/27 06:34:47;;;;;;;;;;;;;;;21.76;27.13;97586.13;4938375;29;1013;-75
2021/12/27 06:37:12;;;;;;;;;;;;;;;22.15;26.58;97592.50;4938747;29;985;-75
2021/12/27 06:39:38;;;;;;;;;;;;;;;22.01;27.02;97595.78;4938150;29;1906;-75
2021/12/27 06:42:05;;;;;;;;;;;;;;;21.95;26.73;97586.28;4938623;29;1131;-75
2021/12/27 06:44:31;;;;;;;;;;;;;;;21.90;26.71;97589.69;4938408;29;983;-75
2021/12/27 06:46:59;;;;;;;;;;;;;;;21.59;27.50;97595.97;4906785;29;978;-75
2021/12/27 06:49:26;;;;;;;;;;;;;;;21.79;27.46;97596.53;4938281;29;1195;-75
2021/12/27 06:51:51;;;;;;;;;;;;;;;21.98;26.82;97591.84;4906334;29;967;-75
2021/12/27 06:54:17;;;;;;;;;;;;;;;21.82;26.95;97589.16;4938811;29;972;-75
2021/12/27 06:56:42;;;;;;;;;;;;;;;21.28;28.10;97596.53;4953651;29;1014;-75
2021/12/27 06:59:08;;;;;;;;;;;;;;;21.18;28.20;97602.53;4963245;28;1902;-75
2021/12/27 07:01:33;;;;;;;;;;;;;;;21.90;27.29;97595.38;4998343;28;1012;-75
2021/12/27 07:03:59;;;;;;;;;;;;;;;22.06;26.99;97587.50;4998031;28;972;-75
2021/12/27 07:06:24;;;;;;;;;;;;;;;22.00;26.70;97597.03;4963452;28;975;-75
2021/12/27 07:08:49;;;;;;;;;;;;;;;22.33;26.49;97595.50;4998592;28;954;-75
2021/12/27 07:11:15;;;;;;;;;;;;;;;22.83;25.54;97593.63;4998467;28;921;-75
2021/12/27 07:13:40;;;;;;;;;;;;;;;22.28;26.45;97598.13;4997907;28;956;-75
2021/12/27 07:16:06;;;;;;;;;;;;;;;22.29;26.39;97594.03;4998155;28;958;-75
2021/12/27 07:18:31;;;;;;;;;;;;;;;21.79;27.13;97590.84;4997974;28;1902;-75
2021/12/27 07:20:57;;;;;;;;;;;;;;;21.98;26.98;97597.50;4997821;28;1129;-75
2021/12/27 07:23:22;;;;;;;;;;;;;;;21.98;26.96;97600.34;4997824;28;1230;-76
2021/12/27 07:25:48;;;;;;;;;;;;;;;21.04;28.51;97598.13;4998226;28;918;-75
2021/12/27 07:28:13;;;;;;;;;;;;;;;21.10;28.37;97599.16;4997454;28;956;-76
2021/12/27 07:30:39;;;;;;;;;;;;;;;21.84;27.37;97590.28;4997898;28;870;-75
2021/12/27 07:33:04;;;;;;;;;;;;;;;22.06;26.72;97600.88;4979524;28;1056;-76
2021/12/27 07:35:30;;;;;;;;;;;;;;;21.92;27.13;97592.88;4997391;28;863;-75
2021/12/27 07:37:55;;;;;;;;;;;;;;;21.68;27.29;97601.75;4997880;28;958;-75
2021/12/27 07:40:21;;;;;;;;;;;;;;;22.11;27.02;97594.66;4997644;28;1974;-75
2021/12/27 07:42:46;;;;;;;;;;;;;;;22.03;26.87;97590.47;4997487;28;939;-75
2021/12/27 07:45:12;;;;;;;;;;;;;;;21.72;27.28;97587.50;4980145;28;1121;-75
2021/12/27 07:47:38;;;;;;;;;;;;;;;21.91;26.99;97594.09;4956323;29;969;-75
2021/12/27 07:50:04;;;;;;;;;;;;;;;22.08;27.09;97585.00;4940155;29;957;-75
2021/12/27 07:52:29;;;;;;;;;;;;;;;21.51;27.73;97597.47;4940505;29;1023;-75
2021/12/27 07:54:55;;;;;;;;;;;;;;;22.04;27.02;97594.88;4956437;29;1018;-76
2021/12/27 07:57:20;;;;;;;;;;;;;;;21.78;27.46;97594.94;4956194;29;955;-75
2021/12/27 07:59:47;;;;;;;;;;;;;;;21.89;27.42;97597.41;4956101;29;1911;-75
2021/12/27 08:02:14;;;;;;;;;;;;;;;22.82;25.78;97594.88;4937329;29;1013;-75
2021/12/27 08:04:40;;;;;;;;;;;;;;;22.65;25.84;97593.53;4936717;29;1110;-75
2021/12/27 08:07:08;;;;;;;;;;;;;;;22.15;26.67;97589.66;4937305;29;1012;-75
2021/12/27 08:09:37;;;;;;;;;;;;;;;21.78;27.05;97589.28;4937234;29;1052;-76
2021/12/27 08:12:02;;;;;;;;;;;;;;;21.88;27.29;97589.38;4937100;29;1007;-75
2021/12/27 08:14:28;;;;;;;;;;;;;;;22.75;25.96;97594.38;4937128;29;933;-75
2021/12/27 08:16:53;;;;;;;;;;;;;;;22.33;26.14;97594.72;4905211;29;1033;-75
2021/12/27 08:19:19;;;;;;;;;;;;;;;22.05;26.57;97590.78;4967081;28;1977;-75
2021/12/27 08:21:44;;;;;;;;;;;;;;;21.97;26.96;97583.81;4975650;28;1032;-75
2021/12/27 08:24:12;;;;;;;;;;;;;;;21.92;27.10;97598.56;4975368;28;1416;-76
2021/12/27 08:26:38;;;;;;;;;;;;;;;21.61;27.78;97590.69;4975244;28;898;-75
2021/12/27 08:29:04;;;;;;;;;;;;;;;22.04;27.15;97595.66;4975177;28;1029;-76
2021/12/27 08:31:30;;;;;;;;;;;;;;;21.81;27.20;97594.03;4975107;28;951;-75
2021/12/27 08:33:55;;;;;;;;;;;;;;;21.90;27.13;97582.00;4975313;28;1154;-76
2021/12/27 08:36:21;;;;;;;;;;;;;;;21.98;27.00;97585.38;4975274;28;942;-75
2021/12/27 08:38:48;;;;;;;;;;;;;;;22.02;27.05;97586.03;4955488;28;1899;-75
2021/12/27 08:41:14;;;;;;;;;;;;;;;21.62;27.61;97585.81;4955891;29;1134;-75
2021/12/27 08:43:40;;;;;;;;;;;;;;;21.94;27.12;97587.53;4955648;29;1311;-75
2021/12/27 08:46:05;;;;;;;;;;;;;;;21.10;27.63;97522.75;4955599;29;1043;-75
2021/12/27 08:48:31;;;;;;;;;;;;;;;22.73;26.20;97589.16;4955823;29;1007;-75
2021/12/27 08:50:56;;;;;;;;;;;;;;;22.75;25.70;97592.34;4955747;29;1086;-75
2021/12/27 08:53:22;;;;;;;;;;;;;;;21.62;27.30;97588.63;4955757;29;974;-76
2021/12/27 08:55:47;;;;;;;;;;;;;;;21.91;26.94;97579.94;4955568;29;1000;-75
2021/12/27 08:58:12;;;;;;;;;;;;;;;21.86;28.00;97578.47;4955618;29;1895;-75
2021/12/27 09:00:38;;;;;;;;;;;;;;;22.97;25.67;97575.31;4917046;29;1472;-75
2021/12/27 09:03:03;;;;;;;;;;;;;;;22.55;26.22;97560.69;4917602;29;1177;-75
2021/12/27 09:05:29;;;;;;;;;;;;;;;21.82;26.74;97570.13;4917393;29;977;-75
2021/12/27 09:07:54;;;;;;;;;;;;;;;21.89;26.54;97571.13;4932885;29;986;-75
2021/12/27 09:10:20;;;;;;;;;;;;;;;21.16;27.98;97571.88;4917293;29;1077;-74
2021/12/27 09:12:48;;;;;;;;;;;;;;;22.35;26.96;97564.63;4932525;29;1134;-75
2021/12/27 09:15:16;;;;;;;;;;;;;;;22.84;25.81;97564.00;4923615;29;1060;-76
2021/12/27 09:17:42;;;;;;;;;;;;;;;22.23;26.68;97551.31;4959561;29;973;-76
2021/12/27 09:20:07;;;;;;;;;;;;;;;21.58;27.33;97549.09;4959448;29;1999;-75
2021/12/27 09:22:33;;;;;;;;;;;;;;;21.46;27.90;97547.09;4959206;29;1411;-75
2021/12/27 09:24:58;;;;;;;;;;;;;;;22.06;27.49;97538.53;4959357;29;1079;-75
2021/12/27 09:27:23;;;;;;;;;;;;;;;22.83;26.08;97541.78;4921140;29;1047;-75
2021/12/27 09:29:50;;;;;;;;;;;;;;;22.97;25.72;97541.25;4920981;29;1121;-75
2021/12/27 09:32:16;;;;;;;;;;;;;;;22.30;26.77;97534.03;4935327;29;1072;-75
2021/12/27 09:34:41;;;;;;;;;;;;;;;21.97;26.85;97532.81;4939755;29;1065;-76
2021/12/27 09:37:07;;;;;;;;;;;;;;;21.99;26.71;97530.31;4939998;29;907;-75
2021/12/27 09:39:32;;;;;;;;;;;;;;;21.87;27.21;97528.31;4939943;29;1894;-76
2021/12/27 09:41:58;;;;;;;;;;;;;;;22.04;26.96;97522.00;4940038;29;978;-75
2021/12/27 09:44:23;;;;;;;;;;;;;;;22.18;26.86;97532.06;4939901;29;1109;-76
2021/12/27 09:46:49;;;;;;;;;;;;;;;22.15;27.06;97526.53;4939886;29;957;-75
2021/12/27 09:49:16;;;;;;;;;;;;;;;22.09;27.19;97527.09;4939688;29;1021;-76
2021/12/27 09:51:42;;;;;;;;;;;;;;;22.06;27.36;97524.38;4939510;29;1058;-75
2021/12/27 09:54:08;;;;;;;;;;;;;;;21.84;27.50;97518.69;4939958;29;1005;-75
2021/12/27 09:56:36;;;;;;;;;;;;;;;21.45;28.25;97515.19;4939782;29;938;-76
2021/12/27 09:59:02;;;;;;;;;;;;;;;21.63;28.21;97514.56;4985533;28;1903;-75
2021/12/27 10:01:27;;;;;;;;;;;;;;;21.41;28.71;97508.06;4999690;28;1019;-75
2021/12/27 10:03:56;;;;;;;;;;;;;;;21.71;28.01;97509.44;4999947;28;947;-76
2021/12/27 10:06:21;;;;;;;;;;;;;;;22.15;27.24;97510.31;4999912;28;918;-75
2021/12/27 10:08:47;;;;;;;;;;;;;;;21.96;27.63;97508.56;4999695;28;984;-75
2021/12/27 10:11:25;;;;;;;;;;;;;;;21.27;28.51;97501.56;4999266;28;990;-75
2021/12/27 10:13:59;;;;;;;;;;;;;;;22.04;27.34;97499.34;4999897;28;1996;-75
2021/12/27 10:16:25;;;;;;;;;;;;;;;21.84;27.79;97496.81;5019355;28;938;-75
2021/12/27 10:18:58;;;;;;;;;;;;;;;21.82;27.59;97502.16;4997112;28;1910;-75
2021/12/27 10:21:24;;;;;;;;;;;;;;;21.77;27.77;97497.06;4997439;28;947;-75
2021/12/27 10:23:59;;;;;;;;;;;;;;;21.81;27.79;97486.41;4997186;28;1121;-75
2021/12/27 10:26:28;;;;;;;;;;;;;;;21.81;27.69;97486.41;4996526;28;928;-76
2021/12/27 10:29:14;;;;;;;;;;;;;;;22.25;26.94;97475.13;4997191;28;943;-75
2021/12/27 10:31:51;;;;;;;;;;;;;;;23.01;26.10;97475.88;4996628;28;1014;-75
2021/12/27 10:34:17;;;;;;;;;;;;;;;22.42;26.73;97472.06;4996769;28;960;-75
2021/12/27 10:37:02;;;;;;;;;;;;;;;21.65;27.63;97469.56;4996789;28;968;-75
2021/12/27 10:39:29;;;;;;;;;;;;;;;22.06;27.66;97462.03;4996801;28;1918;-76
2021/12/27 10:42:04;;;;;;;;;;;;;;;22.85;26.34;97454.19;4957898;29;1056;-75
2021/12/27 10:44:30;;;;;;;;;;;;;;;22.51;26.70;97458.75;4958410;29;943;-75
2021/12/27 10:46:56;;;;;;;;;;;;;;;22.23;27.04;97466.31;4941469;29;1029;-76
2021/12/27 10:49:22;;;;;;;;;;;;;;;22.01;27.35;97454.13;4963938;28;981;-76
2021/12/27 10:51:47;;;;;;;;;;;;;;;21.52;28.27;97454.69;4977020;28;1038;-75
2021/12/27 10:54:13;;;;;;;;;;;;;;;21.63;28.46;97452.28;4977067;28;981;-75
2021/12/27 10:56:48;;;;;;;;;;;;;;;22.70;26.47;97453.19;4977115;28;976;-75
2021/12/27 10:59:17;;;;;;;;;;;;;;;22.00;27.55;97449.72;4977207;28;1906;-75
2021/12/27 11:01:45;;;;;;;;;;;;;;;22.05;27.32;97449.91;4975731;28;1167;-76
2021/12/27 11:04:14;;;;;;;;;;;;;;;21.46;28.37;97448.03;4975406;28;1119;-76
2021/12/27 11:06:40;;;;;;;;;;;;;;;21.62;28.20;97439.38;4975664;28;1219;-76
2021/12/27 11:09:06;;;;;;;;;;;;;;;21.98;27.51;97438.09;4936699;29;1216;-76
2021/12/27 11:11:31;;;;;;;;;;;;;;;22.03;27.47;97440.31;4936962;29;1263;-75
2021/12/27 11:13:57;;;;;;;;;;;;;;;21.75;27.95;97442.13;4936878;29;1275;-76
2021/12/27 11:16:27;;;;;;;;;;;;;;;22.31;27.23;97441.31;4913367;29;1223;-75
2021/12/27 11:18:54;;;;;;;;;;;;;;;22.10;27.71;97443.69;4948522;28;1906;-75
2021/12/27 11:21:20;;;;;;;;;;;;;;;22.20;27.44;97443.75;4975067;28;1218;-75
2021/12/27 11:23:48;;;;;;;;;;;;;;;21.53;28.42;97448.56;4926681;29;1385;-75
2021/12/27 11:26:14;;;;;;;;;;;;;;;20.95;29.31;97445.28;4906907;29;1407;-75
2021/12/27 11:28:40;;;;;;;;;;;;;;;21.79;28.03;97440.75;4908229;29;1224;-75
2021/12/27 11:31:06;;;;;;;;;;;;;;;21.84;28.10;97437.34;4896209;29;1287;-75
2021/12/27 11:33:32;;;;;;;;;;;;;;;22.61;26.96;97436.91;4907383;29;1212;-75
2021/12/27 11:35:58;;;;;;;;;;;;;;;22.91;26.33;97434.53;4889815;29;1269;-75
2021/12/27 11:38:29;;;;;;;;;;;;;;;22.11;27.04;97430.31;4888649;29;1981;-75
2021/12/27 11:40:54;;;;;;;;;;;;;;;21.78;27.71;97439.19;4906325;29;1214;-75
2021/12/27 11:43:20;;;;;;;;;;;;;;;22.01;27.21;97428.63;4907607;29;1287;-75
2021/12/27 11:45:47;;;;;;;;;;;;;;;21.61;28.49;97426.47;4907546;29;1264;-75
2021/12/27 11:48:16;;;;;;;;;;;;;;;22.95;26.64;97418.94;4909380;29;1241;-75
2021/12/27 11:50:56;;;;;;;;;;;;;;;22.75;26.50;97421.38;4908019;29;1260;-75
2021/12/27 11:53:26;;;;;;;;;;;;;;;21.76;27.72;97421.88;4907640;29;1256;-75
2021/12/27 11:55:51;;;;;;;;;;;;;;;21.90;28.48;97419.75;4952994;29;1287;-75
2021/12/27 11:58:29;;;;;;;;;;;;;;;22.54;27.38;97411.69;4991543;28;1230;-75
2021/12/27 12:00:55;;;;;;;;;;;;;;;22.63;26.44;97414.53;4994163;28;1183;-75
2021/12/27 12:03:33;;;;;;;;;;;;;;;22.18;27.17;97412.28;4994908;28;1238;-75
2021/12/27 12:05:59;;;;;;;;;;;;;;;21.92;27.38;97406.72;4994320;28;1216;-75
2021/12/27 12:08:27;;;;;;;;;;;;;;;22.11;27.32;97401.97;5015885;28;1254;-75
2021/12/27 12:10:59;;;;;;;;;;;;;;;21.64;27.85;97408.53;5013262;28;1152;-75
2021/12/27 12:13:29;;;;;;;;;;;;;;;21.80;28.19;97404.72;5015849;28;1179;-75
2021/12/27 12:16:04;;;;;;;;;;;;;;;21.69;28.06;97410.00;5013296;28;1174;-75
2021/12/27 12:18:30;;;;;;;;;;;;;;;21.79;28.05;97412.44;5015258;28;1993;-75
2021/12/27 12:20:56;;;;;;;;;;;;;;;21.75;28.40;97402.50;5015425;28;1195;-75
2021/12/27 12:23:21;;;;;;;;;;;;;;;22.60;27.41;97406.97;5015468;28;1217;-76
2021/12/27 12:25:47;;;;;;;;;;;;;;;22.42;26.86;97410.50;5015940;28;1211;-74
2021/12/27 12:28:14;;;;;;;;;;;;;;;21.80;27.92;97416.84;4973101;28;1311;-73
2021/12/27 12:30:47;;;;;;;;;;;;;;;21.69;28.02;97427.78;4966771;28;980;-74
2021/12/27 12:33:13;;;;;;;;;;;;;;;21.91;28.15;97422.13;4955945;29;1076;-74
2021/12/27 12:35:46;;;;;;;;;;;;;;;22.55;27.24;97418.91;4923765;29;1055;-74
2021/12/27 12:38:20;;;;;;;;;;;;;;;22.49;26.66;97418.75;4955651;29;966;-74
2021/12/27 12:40:55;;;;;;;;;;;;;;;22.03;27.53;97414.81;4956055;29;1967;-74
2021/12/27 12:43:39;;;;;;;;;;;;;;;21.85;27.70;97406.97;4955579;29;1001;-74
2021/12/27 12:46:10;;;;;;;;;;;;;;;22.12;27.75;97408.44;4955806;29;1064;-74
2021/12/27 12:48:35;;;;;;;;;;;;;;;21.50;28.83;97409.06;4955457;29;1019;-73
2021/12/27 12:51:01;;;;;;;;;;;;;;;21.65;28.61;97421.44;4955573;29;999;-74
2021/12/27 12:53:30;;;;;;;;;;;;;;;21.92;27.89;97412.41;4955931;29;975;-74
2021/12/27 12:55:58;;;;;;;;;;;;;;;21.65;28.18;97410.13;4955545;29;961;-74
2021/12/27 12:58:31;;;;;;;;;;;;;;;21.65;28.32;97398.78;4955696;29;1903;-74
2021/12/27 13:01:01;;;;;;;;;;;;;;;22.00;28.36;97385.34;4955558;29;1406;-74